createdAt,value
2017-07-31T00:00:47.740Z,100216
2017-07-31T00:05:51.718Z,100233
2017-07-31T00:10:54.899Z,100239
2017-07-31T00:15:58.078Z,100219
2017-07-31T00:21:02.028Z,100222
2017-07-31T00:26:05.227Z,100213
2017-07-31T00:31:08.397Z,100215
2017-07-31T00:36:12.751Z,100209
2017-07-31T00:41:16.670Z,100211
2017-07-31T00:46:19.880Z,100209
2017-07-31T00:51:23.842Z,100203
2017-07-31T00:56:27.037Z,100199
2017-07-31T01:01:30.214Z,100208
2017-07-31T01:06:34.181Z,100205
2017-07-31T01:11:37.370Z,100203
2017-07-31T01:16:40.551Z,100204
2017-07-31T01:21:44.493Z,100205
2017-07-31T01:26:47.694Z,100201
2017-07-31T01:31:50.889Z,100202
2017-07-31T01:36:54.882Z,100218
2017-07-31T01:41:58.101Z,100228
2017-07-31T01:47:02.050Z,100220
2017-07-31T01:52:05.994Z,100215
2017-07-31T01:57:09.153Z,100214
2017-07-31T02:02:12.368Z,100202
2017-07-31T02:07:15.647Z,100210
2017-07-31T02:12:18.842Z,100214
2017-07-31T02:17:22.034Z,100216
2017-07-31T02:22:25.297Z,100220
2017-07-31T02:27:29.242Z,100234
2017-07-31T02:32:32.483Z,100241
2017-07-31T02:37:35.721Z,100227
2017-07-31T02:42:38.917Z,100229
2017-07-31T02:47:42.252Z,100235
2017-07-31T02:52:46.194Z,100237
2017-07-31T02:57:50.136Z,100260
2017-07-31T03:02:53.334Z,100242
2017-07-31T03:07:56.658Z,100241
2017-07-31T03:12:59.881Z,100249
2017-07-31T03:18:03.070Z,100260
2017-07-31T03:23:06.283Z,100253
2017-07-31T03:28:09.461Z,100252
2017-07-31T03:33:12.684Z,100268
2017-07-31T03:38:15.858Z,100264
2017-07-31T03:43:19.809Z,100260
2017-07-31T03:48:22.985Z,100260
2017-07-31T03:53:26.442Z,100267
2017-07-31T03:58:29.613Z,100250
2017-07-31T04:03:33.561Z,100264
2017-07-31T04:08:36.778Z,100257
2017-07-31T04:13:39.962Z,100264
2017-07-31T04:18:43.908Z,100269
2017-07-31T04:23:47.108Z,100276
2017-07-31T04:28:50.297Z,100279
2017-07-31T04:33:54.237Z,100279
2017-07-31T04:38:57.411Z,100271
2017-07-31T04:44:01.362Z,100267
2017-07-31T04:49:04.549Z,100264
2017-07-31T04:54:08.504Z,100272
2017-07-31T04:59:11.717Z,100292
2017-07-31T05:04:14.890Z,100333
2017-07-31T05:09:18.814Z,100332
2017-07-31T05:14:22.764Z,100330
2017-07-31T05:19:25.959Z,100335
2017-07-31T05:24:29.140Z,100339
2017-07-31T05:29:32.300Z,100321
2017-07-31T05:34:35.481Z,100317
2017-07-31T05:39:38.664Z,100312
2017-07-31T05:44:42.619Z,100310
2017-07-31T05:49:45.789Z,100322
2017-07-31T05:54:49.740Z,100324
2017-07-31T05:59:52.902Z,100308
2017-07-31T06:04:56.104Z,100304
2017-07-31T06:09:59.269Z,100325
2017-07-31T06:15:02.462Z,100335
2017-07-31T06:20:05.744Z,100339
2017-07-31T06:25:08.939Z,100354
2017-07-31T06:30:12.134Z,100369
2017-07-31T06:35:15.349Z,100360
2017-07-31T06:40:18.546Z,100369
2017-07-31T06:45:21.724Z,100369
2017-07-31T06:50:24.901Z,100374
2017-07-31T06:55:28.861Z,100375
2017-07-31T07:00:32.055Z,100371
2017-07-31T07:05:35.266Z,100373
2017-07-31T07:10:38.450Z,100376
2017-07-31T07:15:42.437Z,100368
2017-07-31T07:20:45.577Z,100378
2017-07-31T07:25:49.557Z,100368
2017-07-31T07:30:52.705Z,100381
2017-07-31T07:35:56.650Z,100376
2017-07-31T07:40:59.855Z,100368
2017-07-31T07:46:03.060Z,100388
2017-07-31T07:51:07.002Z,100387
2017-07-31T07:56:10.185Z,100396
2017-07-31T08:01:14.129Z,100387
2017-07-31T08:06:17.325Z,100387
2017-07-31T08:11:20.627Z,100389
2017-07-31T08:16:24.584Z,100383
2017-07-31T08:21:27.761Z,100392
2017-07-31T08:26:31.032Z,100393
2017-07-31T08:31:34.232Z,100403
2017-07-31T08:36:37.397Z,100395
2017-07-31T08:41:40.594Z,100415
2017-07-31T08:46:43.790Z,100410
2017-07-31T08:51:47.736Z,100401
2017-07-31T08:56:50.979Z,100396
2017-07-31T09:01:54.143Z,100393
2017-07-31T09:06:57.345Z,100393
2017-07-31T09:12:00.707Z,100395
2017-07-31T09:17:03.868Z,100391
2017-07-31T09:22:07.077Z,100388
2017-07-31T09:27:10.323Z,100387
2017-07-31T09:32:13.630Z,100388
2017-07-31T09:37:16.827Z,100382
2017-07-31T09:42:20.004Z,100382
2017-07-31T09:47:23.196Z,100385
2017-07-31T09:52:27.148Z,100377
2017-07-31T09:57:30.341Z,100379
2017-07-31T10:02:33.636Z,100386
2017-07-31T10:07:37.578Z,100378
2017-07-31T10:12:40.778Z,100373
2017-07-31T10:17:43.960Z,100369
2017-07-31T10:22:47.943Z,100375
2017-07-31T10:27:51.134Z,100368
2017-07-31T10:32:54.412Z,100374
2017-07-31T10:37:58.378Z,100368
2017-07-31T10:43:01.573Z,100372
2017-07-31T10:48:05.026Z,100364
2017-07-31T10:53:08.284Z,100363
2017-07-31T10:58:11.507Z,100359
2017-07-31T11:03:14.712Z,100357
2017-07-31T11:08:17.875Z,100357
2017-07-31T11:13:21.813Z,100342
2017-07-31T11:18:25.033Z,100358
2017-07-31T11:23:28.242Z,100369
2017-07-31T11:28:31.569Z,100363
2017-07-31T11:33:34.762Z,100381
2017-07-31T11:38:37.937Z,100377
2017-07-31T11:43:41.139Z,100383
2017-07-31T11:48:45.092Z,100395
2017-07-31T11:53:48.295Z,100404
2017-07-31T11:58:51.596Z,100394
2017-07-31T12:03:56.574Z,100390
2017-07-31T12:08:59.792Z,100399
2017-07-31T12:14:03.032Z,100397
2017-07-31T12:19:06.235Z,100389
2017-07-31T12:24:09.470Z,100374
2017-07-31T12:29:13.421Z,100365
2017-07-31T12:34:16.617Z,100350
2017-07-31T12:39:19.821Z,100351
2017-07-31T12:44:23.054Z,100342
2017-07-31T12:49:26.246Z,100339
2017-07-31T12:54:29.449Z,100335
2017-07-31T12:59:32.645Z,100342
2017-07-31T13:04:35.849Z,100338
2017-07-31T13:09:39.041Z,100330
2017-07-31T13:14:43.011Z,100339
2017-07-31T13:19:46.220Z,100340
2017-07-31T13:24:49.389Z,100340
2017-07-31T13:29:52.601Z,100339
2017-07-31T13:34:55.822Z,100342
2017-07-31T13:39:59.026Z,100319
2017-07-31T13:45:02.413Z,100346
2017-07-31T13:50:06.382Z,100344
2017-07-31T13:55:09.655Z,100342
2017-07-31T14:00:13.632Z,100344
2017-07-31T14:05:16.816Z,100336
2017-07-31T14:10:20.017Z,100345
2017-07-31T14:15:23.207Z,100335
2017-07-31T14:20:26.405Z,100340
2017-07-31T14:25:29.593Z,100341
2017-07-31T14:30:33.641Z,100349
2017-07-31T14:35:36.851Z,100350
2017-07-31T14:40:40.049Z,100352
2017-07-31T14:45:43.271Z,100363
2017-07-31T14:50:46.622Z,100352
2017-07-31T14:55:49.810Z,100339
2017-07-31T15:00:52.987Z,100312
2017-07-31T15:05:56.930Z,100334
2017-07-31T15:11:00.133Z,100350
2017-07-31T15:16:03.333Z,100349
2017-07-31T15:21:06.549Z,100341
2017-07-31T15:26:09.833Z,100330
2017-07-31T15:31:13.792Z,100313
2017-07-31T15:36:16.978Z,100268
2017-07-31T15:41:20.182Z,100307
2017-07-31T15:46:23.397Z,100313
2017-07-31T15:51:26.581Z,100313
2017-07-31T15:56:29.763Z,100315
2017-07-31T16:01:32.997Z,100283
2017-07-31T16:06:36.261Z,100228
2017-07-31T16:11:39.470Z,100267
2017-07-31T16:16:42.655Z,100293
2017-07-31T16:21:45.832Z,100282
2017-07-31T16:26:49.018Z,100274
2017-07-31T16:31:52.998Z,100278
2017-07-31T16:36:56.205Z,100274
2017-07-31T16:42:02.026Z,100277
2017-07-31T16:47:22.819Z,100270
2017-07-31T16:52:26.001Z,100275
2017-07-31T16:57:29.169Z,100269
2017-07-31T17:02:32.339Z,100270
2017-07-31T17:07:36.053Z,100264
2017-07-31T17:12:39.231Z,100269
2017-07-31T17:17:42.411Z,100250
2017-07-31T17:22:46.717Z,100242
2017-07-31T17:27:50.876Z,100243
2017-07-31T17:32:54.053Z,100250
2017-07-31T17:37:58.039Z,100245
2017-07-31T17:43:01.556Z,100235
2017-07-31T17:48:04.783Z,100239
2017-07-31T17:53:07.972Z,100246
2017-07-31T17:58:11.178Z,100249
2017-07-31T18:03:14.417Z,100270
2017-07-31T18:08:17.606Z,100280
2017-07-31T18:13:20.829Z,100278
2017-07-31T18:18:24.804Z,100278
2017-07-31T18:23:27.981Z,100274
2017-07-31T18:28:31.195Z,100278
2017-07-31T18:33:34.389Z,100278
2017-07-31T18:38:38.707Z,100277
2017-07-31T18:43:42.016Z,100294
2017-07-31T18:48:45.266Z,100298
2017-07-31T18:53:48.470Z,100288
2017-07-31T18:58:51.665Z,100282
2017-07-31T19:03:54.877Z,100276
2017-07-31T19:08:58.069Z,100288
2017-07-31T19:14:02.143Z,100314
2017-07-31T19:19:05.343Z,100337
2017-07-31T19:24:08.569Z,100288
2017-07-31T19:29:11.756Z,100343
2017-07-31T19:34:15.578Z,100357
2017-07-31T19:39:18.778Z,100314
2017-07-31T19:44:22.019Z,100235
2017-07-31T19:49:25.262Z,100192
2017-07-31T19:54:29.223Z,100198
2017-07-31T19:59:35.446Z,100229
2017-07-31T20:04:38.663Z,100242
2017-07-31T20:09:42.966Z,100272
2017-07-31T20:14:46.170Z,100271
2017-07-31T20:19:49.395Z,100274
2017-07-31T20:24:52.601Z,100268
2017-07-31T20:29:55.814Z,100251
2017-07-31T20:34:59.018Z,100240
2017-07-31T20:40:02.995Z,100227
2017-07-31T20:45:06.214Z,100224
2017-07-31T20:50:09.504Z,100220
2017-07-31T20:55:12.706Z,100217
2017-07-31T21:00:15.896Z,100218
2017-07-31T21:05:19.144Z,100225
2017-07-31T21:10:22.337Z,100238
2017-07-31T21:15:25.584Z,100219
2017-07-31T21:20:28.774Z,100225
2017-07-31T21:25:31.991Z,100223
2017-07-31T21:30:35.174Z,100222
2017-07-31T21:35:38.362Z,100206
2017-07-31T21:40:41.570Z,100206
2017-07-31T21:45:44.931Z,100219
2017-07-31T21:50:48.160Z,100216
2017-07-31T21:55:52.109Z,100209
2017-07-31T22:00:55.310Z,100203
2017-07-31T22:05:58.652Z,100204
2017-07-31T22:11:01.837Z,100207
2017-07-31T22:16:05.061Z,100192
2017-07-31T22:21:13.812Z,100189
2017-07-31T22:26:17.142Z,100171
2017-07-31T22:31:20.320Z,100160
2017-07-31T22:36:23.545Z,100152
2017-07-31T22:41:26.725Z,100153
2017-07-31T22:46:29.945Z,100144
2017-07-31T22:51:33.466Z,100139
2017-07-31T22:56:36.662Z,100148
2017-07-31T23:01:39.870Z,100194
2017-07-31T23:06:43.073Z,100281
2017-07-31T23:11:46.229Z,100253
2017-07-31T23:16:50.189Z,100155
2017-07-31T23:21:53.356Z,100189
2017-07-31T23:26:56.680Z,100178
2017-07-31T23:31:59.882Z,100155
2017-07-31T23:37:03.087Z,100141
2017-07-31T23:42:07.028Z,100123
2017-07-31T23:47:10.186Z,100096
2017-07-31T23:52:13.425Z,100091
2017-07-31T23:57:17.383Z,100082
